sensor_id;sensor_type;location;lat;lon;timestamp;pressure;altitude;pressure_sealevel;temperature;humidity
48200;BME280;33990;44.602;10.976;2023-04-07T00:01:09;101190.59;;;17.94;39.01
48200;BME280;33990;44.602;10.976;2023-04-07T00:03:37;101186.09;;;17.94;38.85
48200;BME280;33990;44.602;10.976;2023-04-07T00:06:07;101179.03;;;17.93;39.01
48200;BME280;33990;44.602;10.976;2023-04-07T00:08:34;101182.56;;;17.94;38.95
48200;BME280;33990;44.602;10.976;2023-04-07T00:11:01;101185.38;;;17.92;39.02
48200;BME280;33990;44.602;10.976;2023-04-07T00:13:28;101174.66;;;17.92;38.81
48200;BME280;33990;44.602;10.976;2023-04-07T00:15:56;101171.97;;;17.92;38.81
48200;BME280;33990;44.602;10.976;2023-04-07T00:18:24;101168.44;;;17.92;38.77
48200;BME280;33990;44.602;10.976;2023-04-07T00:20:51;101174.66;;;17.92;38.89
48200;BME280;33990;44.602;10.976;2023-04-07T00:23:19;101168.44;;;17.92;38.80
48200;BME280;33990;44.602;10.976;2023-04-07T00:25:47;101169.41;;;17.91;38.75
48200;BME280;33990;44.602;10.976;2023-04-07T00:28:14;101164.06;;;17.91;38.79
48200;BME280;33990;44.602;10.976;2023-04-07T00:30:42;101160.50;;;17.90;38.72
48200;BME280;33990;44.602;10.976;2023-04-07T00:33:09;101165.88;;;17.90;38.58
48200;BME280;33990;44.602;10.976;2023-04-07T00:35:36;101165.88;;;17.90;38.75
48200;BME280;33990;44.602;10.976;2023-04-07T00:38:04;101164.16;;;17.89;38.73
48200;BME280;33990;44.602;10.976;2023-04-07T00:40:31;101162.34;;;17.90;38.76
48200;BME280;33990;44.602;10.976;2023-04-07T00:42:59;101164.16;;;17.89;38.68
48200;BME280;33990;44.602;10.976;2023-04-07T00:45:26;101165.00;;;17.90;38.67
48200;BME280;33990;44.602;10.976;2023-04-07T00:47:56;101163.31;;;17.89;38.50
48200;BME280;33990;44.602;10.976;2023-04-07T00:50:24;101163.31;;;17.89;38.67
48200;BME280;33990;44.602;10.976;2023-04-07T00:52:52;101157.09;;;17.88;38.69
48200;BME280;33990;44.602;10.976;2023-04-07T00:55:20;101159.78;;;17.88;38.68
48200;BME280;33990;44.602;10.976;2023-04-07T00:57:48;101150.03;;;17.87;38.48
48200;BME280;33990;44.602;10.976;2023-04-07T01:00:18;101155.41;;;17.87;38.63
48200;BME280;33990;44.602;10.976;2023-04-07T01:02:58;101158.09;;;17.87;38.71
48200;BME280;33990;44.602;10.976;2023-04-07T01:05:41;101154.56;;;17.87;38.65
48200;BME280;33990;44.602;10.976;2023-04-07T01:08:40;101157.22;;;17.87;38.67
48200;BME280;33990;44.602;10.976;2023-04-07T01:13:48;101135.03;;;17.85;38.61
48200;BME280;33990;44.602;10.976;2023-04-07T01:16:31;101134.06;;;17.86;38.62
48200;BME280;33990;44.602;10.976;2023-04-07T01:19:12;101141.25;;;17.85;38.72
48200;BME280;33990;44.602;10.976;2023-04-07T01:21:43;101135.03;;;17.85;38.70
48200;BME280;33990;44.602;10.976;2023-04-07T01:25:16;101132.50;;;17.83;38.65
48200;BME280;33990;44.602;10.976;2023-04-07T01:27:39;101137.84;;;17.83;38.67
48200;BME280;33990;44.602;10.976;2023-04-07T01:30:11;101138.69;;;17.84;38.76
48200;BME280;33990;44.602;10.976;2023-04-07T01:32:40;101135.19;;;17.83;38.72
48200;BME280;33990;44.602;10.976;2023-04-07T01:35:12;101135.28;;;17.82;38.77
48200;BME280;33990;44.602;10.976;2023-04-07T01:37:39;101126.28;;;17.83;38.73
48200;BME280;33990;44.602;10.976;2023-04-07T01:40:07;101136.13;;;17.82;38.67
48200;BME280;33990;44.602;10.976;2023-04-07T01:42:37;101129.91;;;17.82;38.64
48200;BME280;33990;44.602;10.976;2023-04-07T01:45:06;101125.41;;;17.82;38.67
48200;BME280;33990;44.602;10.976;2023-04-07T01:47:37;101129.91;;;17.82;38.52
48200;BME280;33990;44.602;10.976;2023-04-07T01:50:06;101125.53;;;17.81;38.65
48200;BME280;33990;44.602;10.976;2023-04-07T01:52:35;101128.22;;;17.81;38.63
48200;BME280;33990;44.602;10.976;2023-04-07T01:55:05;101119.31;;;17.80;38.54
48200;BME280;33990;44.602;10.976;2023-04-07T01:57:36;101116.66;;;17.80;38.46
48200;BME280;33990;44.602;10.976;2023-04-07T02:00:11;101112.16;;;17.81;38.60
48200;BME280;33990;44.602;10.976;2023-04-07T02:02:44;101104.25;;;17.79;38.76
48200;BME280;33990;44.602;10.976;2023-04-07T02:05:17;101095.22;;;17.80;38.71
48200;BME280;33990;44.602;10.976;2023-04-07T02:07:58;101106.06;;;17.78;38.74
48200;BME280;33990;44.602;10.976;2023-04-07T02:10:28;101106.06;;;17.78;38.81
48200;BME280;33990;44.602;10.976;2023-04-07T02:13:00;101101.66;;;17.77;38.82
48200;BME280;33990;44.602;10.976;2023-04-07T02:15:30;101104.31;;;17.77;38.70
48200;BME280;33990;44.602;10.976;2023-04-07T02:18:00;101103.47;;;17.77;38.91
48200;BME280;33990;44.602;10.976;2023-04-07T02:20:29;101100.81;;;17.77;38.92
48200;BME280;33990;44.602;10.976;2023-04-07T02:22:57;101102.63;;;17.76;39.10
48200;BME280;33990;44.602;10.976;2023-04-07T02:25:27;101100.81;;;17.77;38.80
48200;BME280;33990;44.602;10.976;2023-04-07T02:27:56;101107.00;;;17.77;38.99
48200;BME280;33990;44.602;10.976;2023-04-07T02:30:25;101109.81;;;17.76;38.92
48200;BME280;33990;44.602;10.976;2023-04-07T02:32:52;101104.59;;;17.74;39.01
48200;BME280;33990;44.602;10.976;2023-04-07T02:35:20;101109.94;;;17.74;39.04
48200;BME280;33990;44.602;10.976;2023-04-07T02:37:47;101115.28;;;17.74;38.92
48200;BME280;33990;44.602;10.976;2023-04-07T02:40:15;101112.63;;;17.74;39.03
48200;BME280;33990;44.602;10.976;2023-04-07T02:42:42;101117.06;;;17.74;39.14
48200;BME280;33990;44.602;10.976;2023-04-07T02:45:10;101126.91;;;17.73;39.21
48200;BME280;33990;44.602;10.976;2023-04-07T02:47:38;101123.34;;;17.74;39.12
48200;BME280;33990;44.602;10.976;2023-04-07T02:50:06;101116.22;;;17.73;38.98
48200;BME280;33990;44.602;10.976;2023-04-07T02:52:35;101122.41;;;17.74;39.04
48200;BME280;33990;44.602;10.976;2023-04-07T02:55:09;101126.91;;;17.73;39.18
48200;BME280;33990;44.602;10.976;2023-04-07T02:57:36;101121.56;;;17.73;39.17
48200;BME280;33990;44.602;10.976;2023-04-07T03:00:08;101119.88;;;17.72;39.14
48200;BME280;33990;44.602;10.976;2023-04-07T03:03:02;101119.88;;;17.72;39.17
48200;BME280;33990;44.602;10.976;2023-04-07T03:05:33;101113.66;;;17.72;39.15
48200;BME280;33990;44.602;10.976;2023-04-07T03:08:01;101116.34;;;17.72;39.18
48200;BME280;33990;44.602;10.976;2023-04-07T03:10:29;101118.16;;;17.71;39.07
48200;BME280;33990;44.602;10.976;2023-04-07T03:12:57;101110.97;;;17.72;39.17
48200;BME280;33990;44.602;10.976;2023-04-07T03:15:25;101111.97;;;17.71;39.14
48200;BME280;33990;44.602;10.976;2023-04-07T03:17:52;101105.75;;;17.70;39.19
48200;BME280;33990;44.602;10.976;2023-04-07T03:20:20;101111.09;;;17.70;39.22
48200;BME280;33990;44.602;10.976;2023-04-07T03:22:47;101112.06;;;17.69;39.27
48200;BME280;33990;44.602;10.976;2023-04-07T03:25:21;101112.91;;;17.70;39.02
48200;BME280;33990;44.602;10.976;2023-04-07T03:27:50;101112.06;;;17.69;39.07
48200;BME280;33990;44.602;10.976;2023-04-07T03:30:18;101111.19;;;17.69;39.17
48200;BME280;33990;44.602;10.976;2023-04-07T03:32:46;101105.84;;;17.69;39.18
48200;BME280;33990;44.602;10.976;2023-04-07T03:35:13;101110.34;;;17.68;39.19
48200;BME280;33990;44.602;10.976;2023-04-07T03:37:42;101113.03;;;17.68;39.10
48200;BME280;33990;44.602;10.976;2023-04-07T03:40:14;101115.72;;;17.68;39.23
48200;BME280;33990;44.602;10.976;2023-04-07T03:42:42;101111.31;;;17.67;39.22
48200;BME280;33990;44.602;10.976;2023-04-07T03:45:11;101114.84;;;17.68;39.22
48200;BME280;33990;44.602;10.976;2023-04-07T03:47:43;101112.19;;;17.68;39.21
48200;BME280;33990;44.602;10.976;2023-04-07T03:50:11;101119.34;;;17.67;39.24
48200;BME280;33990;44.602;10.976;2023-04-07T03:52:52;101116.69;;;17.67;39.12
48200;BME280;33990;44.602;10.976;2023-04-07T03:55:28;101119.44;;;17.66;39.32
48200;BME280;33990;44.602;10.976;2023-04-07T03:58:00;101114.09;;;17.66;39.27
48200;BME280;33990;44.602;10.976;2023-04-07T04:00:31;101114.97;;;17.66;39.25
48200;BME280;33990;44.602;10.976;2023-04-07T04:03:06;101107.81;;;17.67;39.29
48200;BME280;33990;44.602;10.976;2023-04-07T04:05:36;101109.63;;;17.66;39.33
48200;BME280;33990;44.602;10.976;2023-04-07T04:08:04;101112.41;;;17.65;39.38
48200;BME280;33990;44.602;10.976;2023-04-07T04:10:33;101108.75;;;17.66;39.35
48200;BME280;33990;44.602;10.976;2023-04-07T04:13:01;101108.75;;;17.66;39.34
48200;BME280;33990;44.602;10.976;2023-04-07T04:15:33;101113.25;;;17.65;39.34
48200;BME280;33990;44.602;10.976;2023-04-07T04:18:04;101103.38;;;17.66;39.27
48200;BME280;33990;44.602;10.976;2023-04-07T04:20:33;101102.53;;;17.65;39.31
48200;BME280;33990;44.602;10.976;2023-04-07T04:23:02;101109.72;;;17.65;39.47
48200;BME280;33990;44.602;10.976;2023-04-07T04:25:30;101103.50;;;17.64;39.49
48200;BME280;33990;44.602;10.976;2023-04-07T04:27:57;101116.06;;;17.64;39.50
48200;BME280;33990;44.602;10.976;2023-04-07T04:30:26;101108.03;;;17.64;39.31
48200;BME280;33990;44.602;10.976;2023-04-07T04:32:58;101112.53;;;17.63;39.47
48200;BME280;33990;44.602;10.976;2023-04-07T04:35:36;101107.25;;;17.62;39.39
48200;BME280;33990;44.602;10.976;2023-04-07T04:38:10;101123.22;;;17.63;39.48
48200;BME280;33990;44.602;10.976;2023-04-07T04:40:42;101121.50;;;17.62;39.59
48200;BME280;33990;44.602;10.976;2023-04-07T04:43:10;101123.31;;;17.62;39.56
48200;BME280;33990;44.602;10.976;2023-04-07T04:45:39;101122.47;;;17.61;39.52
48200;BME280;33990;44.602;10.976;2023-04-07T04:48:10;101121.63;;;17.61;39.47
48200;BME280;33990;44.602;10.976;2023-04-07T04:50:37;101126.13;;;17.60;39.56
48200;BME280;33990;44.602;10.976;2023-04-07T04:53:09;101121.63;;;17.61;39.57
48200;BME280;33990;44.602;10.976;2023-04-07T04:55:44;101128.81;;;17.60;39.55
48200;BME280;33990;44.602;10.976;2023-04-07T04:58:23;101127.94;;;17.60;39.51
48200;BME280;33990;44.602;10.976;2023-04-07T05:00:55;101138.66;;;17.60;39.67
48200;BME280;33990;44.602;10.976;2023-04-07T05:03:49;101140.50;;;17.59;39.70
48200;BME280;33990;44.602;10.976;2023-04-07T05:06:22;101140.50;;;17.59;39.68
48200;BME280;33990;44.602;10.976;2023-04-07T05:08:51;101148.53;;;17.59;39.72
48200;BME280;33990;44.602;10.976;2023-04-07T05:11:23;101149.38;;;17.60;39.60
48200;BME280;33990;44.602;10.976;2023-04-07T05:13:52;101154.72;;;17.60;39.73
48200;BME280;33990;44.602;10.976;2023-04-07T05:16:20;101155.56;;;17.60;39.74
48200;BME280;33990;44.602;10.976;2023-04-07T05:18:48;101147.53;;;17.60;39.66
48200;BME280;33990;44.602;10.976;2023-04-07T05:21:16;101139.63;;;17.59;39.81
48200;BME280;33990;44.602;10.976;2023-04-07T05:23:43;101144.03;;;17.60;39.72
48200;BME280;33990;44.602;10.976;2023-04-07T05:26:10;101146.69;;;17.60;39.68
48200;BME280;33990;44.602;10.976;2023-04-07T05:28:39;101141.44;;;17.58;39.64
48200;BME280;33990;44.602;10.976;2023-04-07T05:31:13;101139.63;;;17.59;39.61
48200;BME280;33990;44.602;10.976;2023-04-07T05:33:40;101145.00;;;17.59;39.63
48200;BME280;33990;44.602;10.976;2023-04-07T05:36:08;101150.34;;;17.59;39.61
48200;BME280;33990;44.602;10.976;2023-04-07T05:38:35;101145.94;;;17.58;39.69
48200;BME280;33990;44.602;10.976;2023-04-07T05:41:10;101150.44;;;17.57;39.49
48200;BME280;33990;44.602;10.976;2023-04-07T05:43:38;101146.91;;;17.57;39.52
48200;BME280;33990;44.602;10.976;2023-04-07T05:46:06;101136.19;;;17.57;39.70
48200;BME280;33990;44.602;10.976;2023-04-07T05:48:38;101137.06;;;17.57;39.53
48200;BME280;33990;44.602;10.976;2023-04-07T05:51:07;101133.53;;;17.57;39.45
48200;BME280;33990;44.602;10.976;2023-04-07T05:53:34;101130.84;;;17.57;39.41
48200;BME280;33990;44.602;10.976;2023-04-07T05:56:02;101141.69;;;17.55;39.53
48200;BME280;33990;44.602;10.976;2023-04-07T05:58:48;101134.50;;;17.55;39.43
48200;BME280;33990;44.602;10.976;2023-04-07T06:01:16;101132.69;;;17.56;39.45
48200;BME280;33990;44.602;10.976;2023-04-07T06:03:43;101121.13;;;17.55;39.35
48200;BME280;33990;44.602;10.976;2023-04-07T06:06:15;101126.47;;;17.55;39.43
48200;BME280;33990;44.602;10.976;2023-04-07T06:08:44;101113.94;;;17.56;39.43
48200;BME280;33990;44.602;10.976;2023-04-07T06:11:12;101109.44;;;17.57;39.31
48200;BME280;33990;44.602;10.976;2023-04-07T06:13:39;101104.06;;;17.57;39.33
48200;BME280;33990;44.602;10.976;2023-04-07T06:16:08;101113.94;;;17.56;39.29
48200;BME280;33990;44.602;10.976;2023-04-07T06:18:36;101111.25;;;17.56;39.29
48200;BME280;33990;44.602;10.976;2023-04-07T06:21:06;101109.44;;;17.57;39.43
48200;BME280;33990;44.602;10.976;2023-04-07T06:23:33;101114.78;;;17.57;39.21
48200;BME280;33990;44.602;10.976;2023-04-07T06:26:00;101118.31;;;17.57;39.34
48200;BME280;33990;44.602;10.976;2023-04-07T06:28:29;101107.59;;;17.57;39.21
48200;BME280;33990;44.602;10.976;2023-04-07T06:30:58;101110.28;;;17.57;39.26
48200;BME280;33990;44.602;10.976;2023-04-07T06:33:26;101106.63;;;17.58;39.37
48200;BME280;33990;44.602;10.976;2023-04-07T06:35:56;101114.66;;;17.58;38.97
48200;BME280;33990;44.602;10.976;2023-04-07T06:38:23;101115.63;;;17.57;39.25
48200;BME280;33990;44.602;10.976;2023-04-07T06:40:50;101113.72;;;17.59;39.39
48200;BME280;33990;44.602;10.976;2023-04-07T06:43:18;101115.41;;;17.60;39.34
48200;BME280;33990;44.602;10.976;2023-04-07T06:45:54;101111.03;;;17.59;39.21
48200;BME280;33990;44.602;10.976;2023-04-07T06:48:22;101115.41;;;17.60;39.26
48200;BME280;33990;44.602;10.976;2023-04-07T06:50:49;101113.72;;;17.59;39.21
48200;BME280;33990;44.602;10.976;2023-04-07T06:53:17;101109.22;;;17.60;39.25
48200;BME280;33990;44.602;10.976;2023-04-07T06:55:44;101119.06;;;17.59;39.21
48200;BME280;33990;44.602;10.976;2023-04-07T06:58:12;101121.63;;;17.61;39.23
48200;BME280;33990;44.602;10.976;2023-04-07T07:00:39;101115.41;;;17.60;39.44
48200;BME280;33990;44.602;10.976;2023-04-07T07:03:06;101112.63;;;17.62;39.28
48200;BME280;33990;44.602;10.976;2023-04-07T07:05:34;101117.88;;;17.63;39.24
48200;BME280;33990;44.602;10.976;2023-04-07T07:08:02;101114.34;;;17.63;39.35
48200;BME280;33990;44.602;10.976;2023-04-07T07:10:29;101109.00;;;17.63;39.37
48200;BME280;33990;44.602;10.976;2023-04-07T07:12:56;101106.19;;;17.64;39.57
48200;BME280;33990;44.602;10.976;2023-04-07T07:15:24;101111.53;;;17.64;39.27
48200;BME280;33990;44.602;10.976;2023-04-07T07:17:51;101107.91;;;17.65;39.35
48200;BME280;33990;44.602;10.976;2023-04-07T07:20:18;101102.53;;;17.65;39.53
48200;BME280;33990;44.602;10.976;2023-04-07T07:22:46;101101.59;;;17.66;39.47
48200;BME280;33990;44.602;10.976;2023-04-07T07:25:13;101106.81;;;17.68;39.56
48200;BME280;33990;44.602;10.976;2023-04-07T07:27:41;101105.97;;;17.67;39.58
48200;BME280;33990;44.602;10.976;2023-04-07T07:30:08;101102.31;;;17.68;39.63
48200;BME280;33990;44.602;10.976;2023-04-07T07:32:36;101103.06;;;17.70;40.12
48200;BME280;33990;44.602;10.976;2023-04-07T07:35:03;101105.63;;;17.72;39.51
48200;BME280;33990;44.602;10.976;2023-04-07T07:37:32;101097.47;;;17.73;40.24
48200;BME280;33990;44.602;10.976;2023-04-07T07:39:59;101101.78;;;17.76;39.52
48200;BME280;33990;44.602;10.976;2023-04-07T07:42:26;101102.50;;;17.78;39.16
48200;BME280;33990;44.602;10.976;2023-04-07T07:44:54;101097.06;;;17.79;38.61
48200;BME280;33990;44.602;10.976;2023-04-07T07:47:21;101096.06;;;17.81;39.05
48200;BME280;33990;44.602;10.976;2023-04-07T07:49:49;101092.41;;;17.82;38.22
48200;BME280;33990;44.602;10.976;2023-04-07T07:52:16;101095.00;;;17.83;38.52
48200;BME280;33990;44.602;10.976;2023-04-07T07:54:44;101088.66;;;17.84;38.99
48200;BME280;33990;44.602;10.976;2023-04-07T07:57:11;101089.53;;;17.85;38.54
48200;BME280;33990;44.602;10.976;2023-04-07T07:59:38;101086.72;;;17.86;39.03
48200;BME280;33990;44.602;10.976;2023-04-07T08:02:09;101090.28;;;17.87;39.08
48200;BME280;33990;44.602;10.976;2023-04-07T08:04:37;101089.28;;;17.88;39.18
48200;BME280;33990;44.602;10.976;2023-04-07T08:07:04;101084.66;;;17.90;39.19
48200;BME280;33990;44.602;10.976;2023-04-07T08:09:31;101090.00;;;17.90;39.29
48200;BME280;33990;44.602;10.976;2023-04-07T08:12:00;101081.03;;;17.91;39.45
48200;BME280;33990;44.602;10.976;2023-04-07T08:14:27;101084.44;;;17.93;39.35
48200;BME280;33990;44.602;10.976;2023-04-07T08:16:55;101081.75;;;17.93;39.20
48200;BME280;33990;44.602;10.976;2023-04-07T08:19:22;101080.78;;;17.94;39.16
48200;BME280;33990;44.602;10.976;2023-04-07T08:21:51;101080.78;;;17.94;38.75
48200;BME280;33990;44.602;10.976;2023-04-07T08:24:18;101078.94;;;17.94;39.05
48200;BME280;33990;44.602;10.976;2023-04-07T08:26:46;101076.28;;;17.94;38.69
48200;BME280;33990;44.602;10.976;2023-04-07T08:29:14;101076.16;;;17.96;39.05
48200;BME280;33990;44.602;10.976;2023-04-07T08:31:41;101085.06;;;17.96;38.31
48200;BME280;33990;44.602;10.976;2023-04-07T08:34:08;101079.69;;;17.96;38.21
48200;BME280;33990;44.602;10.976;2023-04-07T08:36:36;101074.34;;;17.96;38.29
48200;BME280;33990;44.602;10.976;2023-04-07T08:39:03;101078.84;;;17.96;37.92
48200;BME280;33990;44.602;10.976;2023-04-07T08:41:40;101078.00;;;17.95;38.67
48200;BME280;33990;44.602;10.976;2023-04-07T08:44:09;101079.69;;;17.96;38.78
48200;BME280;33990;44.602;10.976;2023-04-07T08:46:39;101075.19;;;17.97;39.14
48200;BME280;33990;44.602;10.976;2023-04-07T08:49:08;101073.25;;;17.99;39.29
48200;BME280;33990;44.602;10.976;2023-04-07T08:51:37;101071.44;;;17.99;39.51
48200;BME280;33990;44.602;10.976;2023-04-07T08:54:09;101076.66;;;18.01;39.44
48200;BME280;33990;44.602;10.976;2023-04-07T08:56:39;101072.16;;;18.01;39.41
48200;BME280;33990;44.602;10.976;2023-04-07T08:59:09;101076.53;;;18.02;39.27
48200;BME280;33990;44.602;10.976;2023-04-07T09:01:38;101065.81;;;18.02;39.04
48200;BME280;33990;44.602;10.976;2023-04-07T09:04:07;101073.75;;;18.04;39.10
48200;BME280;33990;44.602;10.976;2023-04-07T09:06:35;101071.09;;;18.04;38.57
48200;BME280;33990;44.602;10.976;2023-04-07T09:09:03;101060.38;;;18.04;38.78
48200;BME280;33990;44.602;10.976;2023-04-07T09:11:35;101066.56;;;18.04;39.09
48200;BME280;33990;44.602;10.976;2023-04-07T09:14:03;101065.59;;;18.06;38.68
48200;BME280;33990;44.602;10.976;2023-04-07T09:16:30;101063.03;;;18.04;38.60
48200;BME280;33990;44.602;10.976;2023-04-07T09:18:58;101059.50;;;18.03;38.68
48200;BME280;33990;44.602;10.976;2023-04-07T09:21:26;101061.22;;;18.04;38.60
48200;BME280;33990;44.602;10.976;2023-04-07T09:23:53;101059.38;;;18.05;38.86
48200;BME280;33990;44.602;10.976;2023-04-07T09:26:26;101055.84;;;18.04;38.83
48200;BME280;33990;44.602;10.976;2023-04-07T09:28:57;101054.03;;;18.05;37.71
48200;BME280;33990;44.602;10.976;2023-04-07T09:31:54;101050.63;;;18.03;37.51
48200;BME280;33990;44.602;10.976;2023-04-07T09:36:55;101043.44;;;18.03;37.62
48200;BME280;33990;44.602;10.976;2023-04-07T09:39:24;101044.28;;;18.04;38.15
48200;BME280;33990;44.602;10.976;2023-04-07T09:41:51;101036.34;;;18.02;36.77
48200;BME280;33990;44.602;10.976;2023-04-07T09:44:23;101045.28;;;18.03;37.06
48200;BME280;33990;44.602;10.976;2023-04-07T09:46:55;101040.88;;;18.02;37.06
48200;BME280;33990;44.602;10.976;2023-04-07T09:49:24;101034.66;;;18.01;36.90
48200;BME280;33990;44.602;10.976;2023-04-07T09:51:59;101031.97;;;18.01;37.19
48200;BME280;33990;44.602;10.976;2023-04-07T09:54:32;101031.88;;;18.03;37.11
48200;BME280;33990;44.602;10.976;2023-04-07T09:57:01;101031.00;;;18.02;37.34
48200;BME280;33990;44.602;10.976;2023-04-07T09:59:29;101023.84;;;18.03;37.00
48200;BME280;33990;44.602;10.976;2023-04-07T10:01:58;101022.00;;;18.03;37.08
48200;BME280;33990;44.602;10.976;2023-04-07T10:04:27;101022.97;;;18.02;36.28
48200;BME280;33990;44.602;10.976;2023-04-07T10:06:58;101006.78;;;18.04;37.07
48200;BME280;33990;44.602;10.976;2023-04-07T10:09:27;101014.81;;;18.04;36.94
48200;BME280;33990;44.602;10.976;2023-04-07T10:11:56;101012.16;;;18.04;37.06
48200;BME280;33990;44.602;10.976;2023-04-07T10:14:29;101003.97;;;18.06;34.33
48200;BME280;33990;44.602;10.976;2023-04-07T10:17:02;100991.44;;;18.06;35.60
48200;BME280;33990;44.602;10.976;2023-04-07T10:19:31;100997.63;;;18.07;34.86
48200;BME280;33990;44.602;10.976;2023-04-07T10:22:04;100994.72;;;18.10;36.26
48200;BME280;33990;44.602;10.976;2023-04-07T10:24:55;100991.19;;;18.09;36.96
48200;BME280;33990;44.602;10.976;2023-04-07T10:27:34;100992.19;;;18.08;36.86
48200;BME280;33990;44.602;10.976;2023-04-07T10:30:05;100980.63;;;18.08;36.37
48200;BME280;33990;44.602;10.976;2023-04-07T10:32:45;100982.31;;;18.09;34.69
48200;BME280;33990;44.602;10.976;2023-04-07T10:35:13;100975.13;;;18.09;35.20
48200;BME280;33990;44.602;10.976;2023-04-07T10:40:36;100967.94;;;18.10;36.76
48200;BME280;33990;44.602;10.976;2023-04-07T10:43:05;100958.06;;;18.10;36.61
48200;BME280;33990;44.602;10.976;2023-04-07T10:48:16;100952.84;;;18.09;36.86
48200;BME280;33990;44.602;10.976;2023-04-07T10:50:45;100943.97;;;18.08;37.03
48200;BME280;33990;44.602;10.976;2023-04-07T10:53:14;100936.78;;;18.09;36.32
48200;BME280;33990;44.602;10.976;2023-04-07T10:55:45;100942.25;;;18.07;36.04
48200;BME280;33990;44.602;10.976;2023-04-07T10:58:26;100938.69;;;18.07;34.84
48200;BME280;33990;44.602;10.976;2023-04-07T11:03:28;100935.06;;;18.08;36.48
48200;BME280;33990;44.602;10.976;2023-04-07T11:06:03;100930.56;;;18.08;35.95
48200;BME280;33990;44.602;10.976;2023-04-07T11:08:35;100932.41;;;18.08;36.38
48200;BME280;33990;44.602;10.976;2023-04-07T11:11:04;100927.88;;;18.08;36.10
48200;BME280;33990;44.602;10.976;2023-04-07T11:13:42;100929.56;;;18.09;36.49
48200;BME280;33990;44.602;10.976;2023-04-07T11:16:09;100921.53;;;18.09;36.61
48200;BME280;33990;44.602;10.976;2023-04-07T11:18:38;100921.53;;;18.09;36.89
48200;BME280;33990;44.602;10.976;2023-04-07T11:21:06;100918.72;;;18.11;37.08
48200;BME280;33990;44.602;10.976;2023-04-07T11:23:52;100915.19;;;18.10;37.32
48200;BME280;33990;44.602;10.976;2023-04-07T11:26:19;100913.38;;;18.11;37.27
48200;BME280;33990;44.602;10.976;2023-04-07T11:28:51;100916.94;;;18.11;37.34
48200;BME280;33990;44.602;10.976;2023-04-07T11:31:29;100920.47;;;18.12;37.54
48200;BME280;33990;44.602;10.976;2023-04-07T11:34:03;100910.59;;;18.12;37.41
48200;BME280;33990;44.602;10.976;2023-04-07T11:36:36;100913.28;;;18.12;37.36
48200;BME280;33990;44.602;10.976;2023-04-07T11:39:04;100913.28;;;18.12;37.29
48200;BME280;33990;44.602;10.976;2023-04-07T11:41:32;100914.25;;;18.11;36.94
48200;BME280;33990;44.602;10.976;2023-04-07T11:44:10;100906.06;;;18.13;36.69
48200;BME280;33990;44.602;10.976;2023-04-07T11:47:00;100907.91;;;18.12;37.00
48200;BME280;33990;44.602;10.976;2023-04-07T11:49:29;100906.06;;;18.13;37.22
48200;BME280;33990;44.602;10.976;2023-04-07T11:54:42;100898.03;;;18.13;37.80
48200;BME280;33990;44.602;10.976;2023-04-07T11:57:13;100896.22;;;18.13;37.66
48200;BME280;33990;44.602;10.976;2023-04-07T11:59:40;100895.22;;;18.14;37.86
48200;BME280;33990;44.602;10.976;2023-04-07T12:02:08;100894.28;;;18.15;38.12
48200;BME280;33990;44.602;10.976;2023-04-07T12:04:36;100897.81;;;18.16;38.19
48200;BME280;33990;44.602;10.976;2023-04-07T12:07:10;100893.28;;;18.16;38.16
48200;BME280;33990;44.602;10.976;2023-04-07T12:09:38;100892.31;;;18.17;38.43
48200;BME280;33990;44.602;10.976;2023-04-07T12:12:06;100891.31;;;18.18;38.52
48200;BME280;33990;44.602;10.976;2023-04-07T12:14:34;100897.53;;;18.19;38.58
48200;BME280;33990;44.602;10.976;2023-04-07T12:17:02;100887.69;;;18.19;38.62
48200;BME280;33990;44.602;10.976;2023-04-07T12:19:31;100891.22;;;18.20;38.58
48200;BME280;33990;44.602;10.976;2023-04-07T12:22:02;100892.06;;;18.20;38.61
48200;BME280;33990;44.602;10.976;2023-04-07T12:24:29;100892.91;;;18.21;38.57
48200;BME280;33990;44.602;10.976;2023-04-07T12:26:58;100889.41;;;18.20;38.59
48200;BME280;33990;44.602;10.976;2023-04-07T12:29:26;100889.41;;;18.20;38.63
48200;BME280;33990;44.602;10.976;2023-04-07T12:31:53;100889.41;;;18.20;38.68
48200;BME280;33990;44.602;10.976;2023-04-07T12:34:22;100890.25;;;18.21;38.62
48200;BME280;33990;44.602;10.976;2023-04-07T12:36:49;100888.53;;;18.20;38.59
48200;BME280;33990;44.602;10.976;2023-04-07T12:39:17;100881.34;;;18.20;38.45
48200;BME280;33990;44.602;10.976;2023-04-07T12:41:45;100882.34;;;18.19;38.75
48200;BME280;33990;44.602;10.976;2023-04-07T12:44:14;100883.19;;;18.20;38.61
48200;BME280;33990;44.602;10.976;2023-04-07T12:46:42;100882.34;;;18.19;38.66
48200;BME280;33990;44.602;10.976;2023-04-07T12:49:09;100878.69;;;18.20;38.68
48200;BME280;33990;44.602;10.976;2023-04-07T12:51:37;100880.50;;;18.20;38.77
48200;BME280;33990;44.602;10.976;2023-04-07T12:54:06;100878.78;;;18.19;38.68
48200;BME280;33990;44.602;10.976;2023-04-07T12:56:33;100880.50;;;18.20;38.75
48200;BME280;33990;44.602;10.976;2023-04-07T12:59:01;100878.69;;;18.20;38.79
48200;BME280;33990;44.602;10.976;2023-04-07T13:01:28;100879.66;;;18.19;38.83
48200;BME280;33990;44.602;10.976;2023-04-07T13:03:56;100877.81;;;18.20;38.76
48200;BME280;33990;44.602;10.976;2023-04-07T13:06:24;100879.66;;;18.19;38.92
48200;BME280;33990;44.602;10.976;2023-04-07T13:08:51;100879.66;;;18.19;38.87
48200;BME280;33990;44.602;10.976;2023-04-07T13:11:19;100880.50;;;18.20;38.87